createdAt,value
2023-11-30T00:00:34.516Z,61.90
2023-11-30T00:03:01.658Z,66.57
2023-11-30T00:05:28.744Z,64.43
2023-11-30T00:07:55.782Z,64.35
2023-11-30T00:10:22.826Z,64.32
2023-11-30T00:12:49.901Z,68.68
2023-11-30T00:15:16.933Z,62.53
2023-11-30T00:17:43.897Z,65.75
2023-11-30T00:20:12.516Z,62.75
2023-11-30T00:22:40.175Z,64.28
2023-11-30T00:25:07.548Z,61.42
2023-11-30T00:27:34.524Z,65.78
2023-11-30T00:30:01.701Z,63.60
2023-11-30T00:32:28.769Z,63.17
2023-11-30T00:34:55.824Z,66.35
2023-11-30T00:37:22.952Z,65.78
2023-11-30T00:39:49.888Z,65.75
2023-11-30T00:42:17.137Z,65.80
2023-11-30T00:44:44.909Z,70.05
2023-11-30T00:47:12.045Z,71.13
2023-11-30T00:49:38.959Z,68.93
2023-11-30T00:52:06.388Z,64.25
2023-11-30T00:54:33.317Z,66.82
2023-11-30T00:57:00.341Z,67.25
2023-11-30T00:59:28.380Z,68.70
2023-11-30T01:01:55.397Z,71.88
2023-11-30T01:04:22.566Z,74.15
2023-11-30T01:06:49.810Z,70.10
2023-11-30T01:09:17.045Z,67.63
2023-11-30T01:11:44.842Z,69.55
2023-11-30T01:14:12.167Z,72.15
2023-11-30T01:16:40.093Z,75.70
2023-11-30T01:19:07.031Z,71.13
2023-11-30T01:21:34.216Z,74.18
2023-11-30T01:24:01.299Z,69.95
2023-11-30T01:26:28.380Z,69.60
2023-11-30T01:28:55.331Z,66.18
2023-11-30T01:31:22.480Z,69.07
2023-11-30T01:33:50.772Z,71.32
2023-11-30T01:36:17.842Z,70.63
2023-11-30T01:38:44.946Z,67.90
2023-11-30T01:41:11.945Z,71.50
2023-11-30T01:43:39.001Z,75.43
2023-11-30T01:46:06.278Z,71.50
2023-11-30T01:48:34.037Z,77.30
2023-11-30T01:51:03.508Z,75.88
2023-11-30T01:53:30.563Z,75.68
2023-11-30T01:55:58.213Z,73.43
2023-11-30T01:58:25.209Z,74.43
2023-11-30T02:00:53.923Z,77.70
2023-11-30T02:03:24.265Z,80.97
2023-11-30T02:05:53.275Z,78.50
2023-11-30T02:08:21.195Z,78.18
2023-11-30T02:10:48.275Z,71.32
2023-11-30T02:13:15.590Z,76.80
2023-11-30T02:15:42.796Z,80.97
2023-11-30T02:18:09.986Z,80.10
2023-11-30T02:20:37.049Z,74.53
2023-11-30T02:23:03.990Z,74.68
2023-11-30T02:25:30.914Z,72.40
2023-11-30T02:27:59.965Z,77.22
2023-11-30T02:30:27.130Z,76.32
2023-11-30T02:32:54.416Z,73.53
2023-11-30T02:35:21.507Z,75.45
2023-11-30T02:37:48.538Z,77.40
2023-11-30T02:40:15.674Z,75.43
2023-11-30T02:42:42.630Z,75.70
2023-11-30T02:45:10.251Z,76.90
2023-11-30T02:47:37.308Z,71.28
2023-11-30T02:50:04.949Z,74.70
2023-11-30T02:52:31.865Z,78.90
2023-11-30T02:54:58.882Z,70.20
2023-11-30T02:57:25.874Z,73.75
2023-11-30T02:59:53.029Z,80.50
2023-11-30T03:02:20.598Z,71.30
2023-11-30T03:04:48.030Z,78.20
2023-11-30T03:07:15.212Z,71.38
2023-11-30T03:09:42.251Z,70.57
2023-11-30T03:12:09.324Z,70.68
2023-11-30T03:14:36.282Z,71.13
2023-11-30T03:17:03.298Z,74.90
2023-11-30T03:19:31.120Z,73.40
2023-11-30T03:21:58.037Z,67.95
2023-11-30T03:24:25.038Z,73.22
2023-11-30T03:26:52.072Z,77.68
2023-11-30T03:29:19.176Z,75.93
2023-11-30T03:31:46.240Z,73.20
2023-11-30T03:34:13.470Z,76.90
2023-11-30T03:36:40.808Z,71.13
2023-11-30T03:39:07.958Z,73.00
2023-11-30T03:41:36.242Z,78.45
2023-11-30T03:44:03.542Z,71.93
2023-11-30T03:46:31.119Z,71.90
2023-11-30T03:48:58.247Z,71.45
2023-11-30T03:51:25.165Z,74.20
2023-11-30T03:53:52.231Z,72.90
2023-11-30T03:56:19.238Z,71.80
2023-11-30T03:58:46.203Z,73.85
2023-11-30T04:01:13.125Z,69.45
2023-11-30T04:03:40.156Z,70.55
2023-11-30T04:06:07.697Z,69.20
2023-11-30T04:08:35.247Z,70.30
2023-11-30T04:11:02.174Z,65.70
2023-11-30T04:13:29.606Z,70.50
2023-11-30T04:15:56.636Z,71.25
2023-11-30T04:18:24.045Z,67.60
2023-11-30T04:20:51.122Z,70.50
2023-11-30T04:23:18.327Z,66.90
2023-11-30T04:25:46.027Z,68.47
2023-11-30T04:28:13.143Z,66.07
2023-11-30T04:30:41.143Z,64.65
2023-11-30T04:33:08.293Z,70.20
2023-11-30T04:35:35.631Z,67.03
2023-11-30T04:38:02.566Z,73.55
2023-11-30T04:40:30.151Z,74.43
2023-11-30T04:42:58.104Z,67.43
2023-11-30T04:45:25.853Z,70.15
2023-11-30T04:47:52.927Z,77.55
2023-11-30T04:50:20.274Z,66.65
2023-11-30T04:52:47.256Z,69.53
2023-11-30T04:55:14.487Z,71.57
2023-11-30T04:57:41.592Z,71.97
2023-11-30T05:00:09.992Z,74.68
2023-11-30T05:02:39.273Z,74.43
2023-11-30T05:05:07.717Z,70.45
2023-11-30T05:07:34.809Z,79.35
2023-11-30T05:10:01.836Z,68.68
2023-11-30T05:12:28.893Z,74.45
2023-11-30T05:14:56.332Z,71.43
2023-11-30T05:17:23.265Z,76.60
2023-11-30T05:19:50.326Z,73.43
2023-11-30T05:22:17.360Z,75.25
2023-11-30T05:24:44.368Z,77.97
2023-11-30T05:27:11.407Z,75.40
2023-11-30T05:29:38.445Z,69.60
2023-11-30T05:32:05.620Z,77.22
2023-11-30T05:34:32.709Z,73.60
2023-11-30T05:36:59.688Z,76.93
2023-11-30T05:39:26.594Z,79.03
2023-11-30T05:41:53.606Z,72.47
2023-11-30T05:44:21.848Z,72.90
2023-11-30T05:46:49.370Z,79.65
2023-11-30T05:49:16.501Z,74.47
2023-11-30T05:51:43.560Z,73.75
2023-11-30T05:54:11.618Z,76.63
2023-11-30T05:56:38.671Z,73.15
2023-11-30T05:59:05.987Z,75.57
2023-11-30T06:01:33.193Z,75.43
2023-11-30T06:04:00.377Z,72.75
2023-11-30T06:06:27.667Z,77.72
2023-11-30T06:08:54.630Z,74.05
2023-11-30T06:11:21.630Z,71.63
2023-11-30T06:13:48.768Z,74.30
2023-11-30T06:16:16.765Z,96.13
2023-11-30T06:18:43.926Z,96.97
2023-11-30T06:21:11.549Z,117.35
2023-11-30T06:23:39.165Z,120.82
2023-11-30T06:26:07.881Z,105.47
2023-11-30T06:28:34.985Z,89.93
2023-11-30T06:31:02.112Z,90.70
2023-11-30T06:33:29.754Z,89.25
2023-11-30T06:35:56.929Z,87.65
2023-11-30T06:38:23.939Z,83.40
2023-11-30T06:40:51.182Z,85.15
2023-11-30T06:43:18.203Z,88.05
2023-11-30T06:45:45.247Z,86.60
2023-11-30T06:48:12.397Z,84.43
2023-11-30T06:50:39.656Z,79.03
2023-11-30T06:53:06.637Z,82.55
2023-11-30T06:55:33.686Z,88.70
2023-11-30T06:58:00.666Z,86.35
2023-11-30T07:00:30.684Z,90.72
2023-11-30T07:02:57.881Z,90.55
2023-11-30T07:05:25.619Z,86.47
2023-11-30T07:07:52.844Z,88.95
2023-11-30T07:10:20.022Z,87.95
2023-11-30T07:12:47.540Z,87.57
2023-11-30T07:15:14.725Z,91.40
2023-11-30T07:17:42.044Z,81.88
2023-11-30T07:20:09.767Z,81.53
2023-11-30T07:22:37.075Z,86.72
2023-11-30T07:25:05.310Z,81.20
2023-11-30T07:27:32.388Z,78.47
2023-11-30T07:29:59.502Z,85.97
2023-11-30T07:32:26.501Z,79.65
2023-11-30T07:34:53.869Z,75.38
2023-11-30T07:37:23.195Z,86.15
2023-11-30T07:39:50.454Z,85.90
2023-11-30T07:42:28.682Z,85.03
2023-11-30T07:45:01.322Z,80.50
2023-11-30T07:47:29.139Z,104.35
2023-11-30T07:49:56.177Z,111.80
2023-11-30T07:52:23.191Z,118.57
2023-11-30T07:54:50.235Z,117.00
2023-11-30T07:57:17.917Z,90.38
2023-11-30T07:59:45.606Z,87.97
2023-11-30T08:02:13.283Z,90.93
2023-11-30T08:04:42.019Z,100.68
2023-11-30T08:07:09.068Z,93.10
2023-11-30T08:09:36.120Z,90.82
2023-11-30T08:12:03.684Z,85.47
2023-11-30T08:14:30.774Z,77.28
2023-11-30T08:16:57.915Z,77.65
2023-11-30T08:19:24.851Z,82.40
2023-11-30T08:21:52.113Z,74.97
2023-11-30T08:24:19.471Z,73.25
2023-11-30T08:26:48.091Z,75.18
2023-11-30T08:29:16.768Z,77.75
2023-11-30T08:31:44.013Z,82.90
2023-11-30T08:34:11.651Z,82.32
2023-11-30T08:36:38.860Z,80.07
2023-11-30T08:39:07.113Z,79.05
2023-11-30T08:41:34.326Z,78.10
2023-11-30T08:44:01.386Z,76.38
2023-11-30T08:46:28.581Z,72.82
2023-11-30T08:48:55.986Z,74.22
2023-11-30T08:51:23.184Z,81.43
2023-11-30T08:53:50.151Z,70.22
2023-11-30T08:56:17.634Z,73.57
2023-11-30T08:58:44.844Z,82.97
2023-11-30T09:01:11.937Z,80.80
2023-11-30T09:03:38.896Z,83.53
2023-11-30T09:06:06.498Z,93.75
2023-11-30T09:08:34.885Z,85.95
2023-11-30T09:11:01.867Z,85.75
2023-11-30T09:13:28.821Z,93.43
2023-11-30T09:15:56.172Z,90.82
2023-11-30T09:18:23.225Z,93.32
2023-11-30T09:20:50.253Z,97.90
2023-11-30T09:23:17.270Z,105.75
2023-11-30T09:25:44.428Z,118.45
2023-11-30T09:28:11.521Z,123.22
2023-11-30T09:30:38.548Z,130.40
2023-11-30T09:33:07.903Z,104.22
2023-11-30T09:35:35.045Z,101.75
2023-11-30T09:38:02.398Z,104.53
2023-11-30T09:40:29.356Z,108.07
2023-11-30T09:42:57.698Z,100.75
2023-11-30T09:45:24.829Z,121.38
2023-11-30T09:47:53.245Z,109.75
2023-11-30T09:50:20.908Z,100.35
2023-11-30T09:52:48.011Z,98.95
2023-11-30T09:55:16.969Z,102.90
2023-11-30T09:57:44.028Z,104.18
2023-11-30T10:00:11.948Z,92.53
2023-11-30T10:02:39.063Z,86.70
2023-11-30T10:05:08.199Z,85.15
2023-11-30T10:07:37.154Z,91.47
2023-11-30T10:10:05.859Z,86.90
2023-11-30T10:12:33.149Z,85.80
2023-11-30T10:15:02.057Z,94.63
2023-11-30T10:17:30.059Z,103.43
2023-11-30T10:19:57.364Z,98.68
2023-11-30T10:22:24.417Z,97.63
2023-11-30T10:24:51.722Z,98.60
2023-11-30T10:27:23.106Z,101.90
2023-11-30T10:29:50.690Z,109.35
2023-11-30T10:32:18.371Z,101.43
2023-11-30T10:34:49.605Z,99.95
2023-11-30T10:37:19.974Z,122.63
2023-11-30T10:39:56.351Z,125.47
2023-11-30T10:42:24.955Z,114.88
2023-11-30T10:44:54.650Z,109.03
2023-11-30T10:47:22.960Z,111.57
2023-11-30T10:49:51.224Z,116.15
2023-11-30T10:52:19.017Z,130.13
2023-11-30T10:54:52.145Z,106.07
2023-11-30T10:57:20.324Z,113.57
2023-11-30T10:59:49.317Z,108.38
2023-11-30T11:02:16.911Z,105.53
2023-11-30T11:04:44.214Z,101.72
2023-11-30T11:07:14.711Z,118.07
2023-11-30T11:09:51.972Z,119.15
2023-11-30T11:12:26.739Z,114.90
2023-11-30T11:15:16.145Z,153.20
2023-11-30T11:17:55.539Z,170.05
2023-11-30T11:20:27.609Z,110.65
2023-11-30T11:23:07.328Z,102.00
2023-11-30T11:25:48.195Z,95.90
2023-11-30T11:28:18.372Z,94.57
2023-11-30T11:30:47.389Z,88.78
2023-11-30T11:33:16.857Z,95.07
2023-11-30T11:35:44.148Z,113.80
2023-11-30T11:38:11.401Z,97.03
2023-11-30T11:40:40.179Z,86.22
2023-11-30T11:43:07.341Z,84.50
2023-11-30T11:45:34.561Z,77.53
2023-11-30T11:48:02.905Z,76.57
2023-11-30T11:50:30.389Z,73.75
2023-11-30T11:53:01.376Z,71.72
2023-11-30T11:55:28.613Z,77.43
2023-11-30T11:57:55.689Z,73.45
2023-11-30T12:00:24.136Z,70.05
2023-11-30T12:02:51.938Z,70.72
2023-11-30T12:05:23.441Z,69.70
2023-11-30T12:07:55.650Z,65.07
2023-11-30T12:10:34.066Z,64.22
2023-11-30T12:13:02.459Z,70.03
2023-11-30T12:15:30.696Z,67.20
2023-11-30T12:17:58.206Z,67.63
2023-11-30T12:20:25.748Z,66.38
2023-11-30T12:22:52.822Z,70.53
2023-11-30T12:25:19.937Z,76.20
2023-11-30T12:27:47.331Z,74.90
2023-11-30T12:30:14.528Z,90.25
2023-11-30T12:32:41.548Z,68.90
2023-11-30T12:35:09.783Z,73.65
2023-11-30T12:37:39.203Z,75.60
2023-11-30T12:40:10.182Z,68.35
2023-11-30T12:42:37.885Z,78.20
2023-11-30T12:45:06.048Z,77.60
2023-11-30T12:47:33.191Z,79.18
2023-11-30T12:50:00.468Z,100.10
2023-11-30T12:52:31.140Z,106.63
2023-11-30T12:54:58.418Z,95.03
2023-11-30T12:57:25.670Z,113.50
2023-11-30T12:59:52.691Z,134.10
2023-11-30T13:02:19.896Z,174.48
2023-11-30T13:04:47.911Z,206.18
2023-11-30T13:07:15.097Z,158.85
2023-11-30T13:09:42.217Z,184.68
2023-11-30T13:12:09.206Z,152.18
2023-11-30T13:14:36.361Z,151.07
2023-11-30T13:17:06.156Z,131.82
2023-11-30T13:19:33.869Z,107.65
2023-11-30T13:22:01.153Z,107.63
2023-11-30T13:24:28.209Z,233.30
2023-11-30T13:26:55.179Z,257.02
2023-11-30T13:29:22.148Z,141.55
2023-11-30T13:31:49.356Z,105.25
2023-11-30T13:34:16.313Z,77.65
2023-11-30T13:36:43.443Z,72.22
2023-11-30T13:39:11.422Z,71.75
2023-11-30T13:41:38.407Z,71.13
2023-11-30T13:44:06.310Z,72.75
2023-11-30T13:46:33.598Z,71.35
2023-11-30T13:49:00.649Z,73.43
2023-11-30T13:51:27.912Z,70.60
2023-11-30T13:53:54.828Z,86.22
2023-11-30T13:56:22.883Z,119.53
2023-11-30T13:58:50.861Z,119.45
2023-11-30T14:01:18.375Z,195.75
2023-11-30T14:03:45.668Z,315.45
2023-11-30T14:06:13.532Z,250.05
2023-11-30T14:08:41.401Z,240.68
2023-11-30T14:11:13.188Z,146.35
2023-11-30T14:13:40.564Z,150.68
2023-11-30T14:16:08.400Z,189.27
2023-11-30T14:18:35.549Z,150.18
2023-11-30T14:21:03.139Z,123.68
2023-11-30T14:23:30.193Z,97.18
2023-11-30T14:25:57.809Z,83.97
2023-11-30T14:28:26.328Z,84.95
2023-11-30T14:30:53.922Z,87.50
2023-11-30T14:33:21.156Z,101.28
2023-11-30T14:35:48.314Z,72.75
2023-11-30T14:38:15.345Z,59.30
2023-11-30T14:40:42.376Z,70.35
2023-11-30T14:43:09.598Z,76.63
2023-11-30T14:45:36.745Z,58.70
2023-11-30T14:48:07.453Z,60.67
2023-11-30T14:50:34.939Z,59.58
2023-11-30T14:53:01.980Z,70.90
2023-11-30T14:55:29.016Z,79.50
2023-11-30T14:57:56.025Z,76.82
2023-11-30T15:00:24.828Z,87.63
2023-11-30T15:02:52.791Z,81.05
2023-11-30T15:05:20.030Z,79.85
2023-11-30T15:07:46.944Z,67.03
2023-11-30T15:10:14.259Z,59.28
2023-11-30T15:12:41.631Z,62.03
2023-11-30T15:15:15.141Z,59.90
2023-11-30T15:17:48.178Z,68.43
2023-11-30T15:22:43.256Z,71.85
2023-11-30T15:25:17.922Z,75.28
2023-11-30T15:27:45.951Z,90.93
2023-11-30T15:30:13.777Z,110.15
2023-11-30T15:32:41.137Z,83.38
2023-11-30T15:35:08.364Z,86.50
2023-11-30T15:37:36.884Z,88.68
2023-11-30T15:40:10.384Z,102.40
2023-11-30T15:42:39.362Z,96.70
2023-11-30T15:45:11.563Z,80.72
2023-11-30T15:50:07.936Z,83.75
2023-11-30T15:52:34.928Z,93.10
2023-11-30T15:55:01.977Z,72.65
2023-11-30T15:57:29.251Z,77.60
2023-11-30T15:59:56.483Z,66.25
2023-11-30T16:02:23.665Z,73.50
2023-11-30T16:04:51.332Z,77.10
2023-11-30T16:07:18.511Z,68.00
2023-11-30T16:09:52.399Z,63.33
2023-11-30T16:12:21.316Z,63.72
2023-11-30T16:14:48.176Z,57.00
2023-11-30T16:17:15.334Z,59.83
2023-11-30T16:19:42.978Z,56.85
2023-11-30T16:22:11.326Z,54.20
2023-11-30T16:24:38.399Z,55.22
2023-11-30T16:27:06.183Z,58.25
2023-11-30T16:29:33.736Z,56.83
2023-11-30T16:32:00.907Z,49.53
2023-11-30T16:34:32.141Z,57.47
2023-11-30T16:37:01.008Z,67.25
2023-11-30T16:39:28.821Z,72.38
2023-11-30T16:41:59.535Z,62.45
2023-11-30T16:44:30.965Z,60.75
2023-11-30T16:47:01.716Z,66.35
2023-11-30T16:49:31.943Z,73.90
2023-11-30T16:52:03.377Z,74.80
2023-11-30T16:54:35.348Z,80.75
2023-11-30T16:57:05.735Z,63.78
2023-11-30T16:59:36.559Z,54.78
2023-11-30T17:02:06.431Z,56.88
2023-11-30T17:04:33.461Z,61.00
2023-11-30T17:07:00.748Z,56.03
2023-11-30T17:09:28.173Z,54.60
2023-11-30T17:11:55.194Z,62.03
2023-11-30T17:14:22.522Z,74.75
2023-11-30T17:16:56.124Z,100.80
2023-11-30T17:19:29.638Z,89.43
2023-11-30T17:22:06.320Z,68.05
2023-11-30T17:24:37.148Z,67.30
2023-11-30T17:27:13.074Z,61.80
2023-11-30T17:29:46.165Z,64.78
2023-11-30T17:32:16.465Z,60.33
2023-11-30T17:34:46.391Z,59.97
2023-11-30T17:37:22.010Z,53.78
2023-11-30T17:39:52.400Z,50.60
2023-11-30T17:42:23.360Z,55.00
2023-11-30T17:44:52.429Z,49.00
2023-11-30T17:47:21.276Z,45.95
2023-11-30T17:49:48.381Z,37.97
2023-11-30T17:52:15.806Z,41.35
2023-11-30T17:54:43.048Z,41.55
2023-11-30T17:57:10.876Z,53.50
2023-11-30T17:59:38.892Z,50.40
2023-11-30T18:02:06.546Z,47.63
2023-11-30T18:04:38.210Z,47.83
2023-11-30T18:07:08.675Z,39.83
2023-11-30T18:09:35.696Z,36.03
2023-11-30T18:12:02.916Z,37.95
2023-11-30T18:14:33.134Z,39.65
2023-11-30T18:17:01.409Z,45.92
2023-11-30T18:19:29.062Z,50.95
2023-11-30T18:21:56.137Z,53.45
2023-11-30T18:24:31.337Z,54.03
2023-11-30T18:26:59.872Z,45.03
2023-11-30T18:29:30.989Z,40.10
2023-11-30T18:31:58.088Z,42.17
2023-11-30T18:34:25.554Z,37.65
2023-11-30T18:36:55.133Z,33.58
2023-11-30T18:39:22.232Z,37.70
2023-11-30T18:41:49.246Z,28.83
2023-11-30T18:44:16.337Z,34.03
2023-11-30T18:46:44.131Z,35.72
2023-11-30T18:49:11.264Z,43.47
2023-11-30T18:51:38.397Z,45.13
2023-11-30T18:54:06.927Z,31.50
2023-11-30T18:56:35.114Z,26.70
2023-11-30T18:59:03.054Z,25.63
2023-11-30T19:01:31.072Z,32.10
2023-11-30T19:03:59.099Z,30.20
2023-11-30T19:06:28.178Z,31.63
2023-11-30T19:08:55.293Z,33.28
2023-11-30T19:11:22.668Z,31.52
2023-11-30T19:13:49.657Z,35.85
2023-11-30T19:16:24.030Z,33.22
2023-11-30T19:18:51.748Z,38.10
2023-11-30T19:21:19.363Z,41.45
2023-11-30T19:23:46.778Z,35.08
2023-11-30T19:26:14.382Z,33.50
2023-11-30T19:28:41.669Z,30.73
2023-11-30T19:31:09.011Z,32.63
2023-11-30T19:33:36.086Z,29.23
2023-11-30T19:36:03.242Z,29.33
2023-11-30T19:38:30.422Z,28.75
2023-11-30T19:40:58.358Z,30.52
2023-11-30T19:43:26.394Z,35.00
2023-11-30T19:46:00.288Z,36.25
2023-11-30T19:48:29.317Z,22.92
2023-11-30T19:50:56.664Z,29.75
2023-11-30T19:53:23.841Z,33.92
2023-11-30T19:55:50.729Z,31.95
2023-11-30T19:58:18.525Z,23.27
2023-11-30T20:00:48.689Z,25.52
2023-11-30T20:03:17.696Z,25.63
2023-11-30T20:05:45.506Z,23.20
2023-11-30T20:08:12.737Z,28.27
2023-11-30T20:10:42.775Z,29.38
2023-11-30T20:13:11.228Z,31.13
2023-11-30T20:15:38.600Z,31.10
2023-11-30T20:18:07.074Z,30.40
2023-11-30T20:20:34.244Z,30.60
2023-11-30T20:23:03.204Z,31.00
2023-11-30T20:25:34.255Z,26.20
2023-11-30T20:28:03.086Z,24.90
2023-11-30T20:30:31.175Z,24.17
2023-11-30T20:33:04.123Z,22.25
2023-11-30T20:35:34.174Z,23.42
2023-11-30T20:38:01.930Z,21.02
2023-11-30T20:40:29.335Z,25.45
2023-11-30T20:42:56.599Z,30.15
2023-11-30T20:45:24.929Z,24.02
2023-11-30T20:47:53.108Z,19.60
2023-11-30T20:50:21.106Z,26.83
2023-11-30T20:52:49.132Z,21.40
2023-11-30T20:55:17.119Z,19.77
2023-11-30T20:57:45.711Z,19.50
2023-11-30T21:00:13.518Z,17.88
2023-11-30T21:13:34.788Z,21.70
2023-11-30T21:16:01.973Z,20.60
2023-11-30T21:18:30.168Z,18.73
2023-11-30T21:20:57.296Z,24.50
2023-11-30T21:23:24.789Z,24.35
2023-11-30T21:25:51.808Z,19.67
2023-11-30T21:28:19.030Z,19.30
2023-11-30T21:30:46.164Z,21.17
2023-11-30T21:33:13.370Z,21.92
2023-11-30T21:35:40.631Z,22.00
2023-11-30T21:38:07.657Z,21.52
2023-11-30T21:40:36.601Z,19.95
2023-11-30T21:43:03.932Z,20.73
2023-11-30T21:45:31.180Z,23.05
2023-11-30T21:47:58.284Z,20.50
2023-11-30T21:50:27.069Z,23.17
2023-11-30T21:52:54.667Z,25.38
2023-11-30T21:55:21.835Z,25.63
2023-11-30T21:57:49.199Z,29.15
2023-11-30T22:00:17.274Z,30.88
2023-11-30T22:02:48.427Z,32.70
2023-11-30T22:05:23.308Z,30.10
2023-11-30T22:07:54.185Z,32.70
2023-11-30T22:10:21.363Z,26.85
2023-11-30T22:12:48.550Z,20.17
2023-11-30T22:15:15.728Z,24.60
2023-11-30T22:17:42.988Z,18.23
2023-11-30T22:20:10.699Z,21.08
2023-11-30T22:22:38.050Z,24.55
2023-11-30T22:25:05.606Z,27.48
2023-11-30T22:27:32.827Z,22.25
2023-11-30T22:30:00.081Z,17.02
2023-11-30T22:32:27.421Z,18.35
2023-11-30T22:34:54.722Z,16.98
2023-11-30T22:37:21.888Z,18.98
2023-11-30T22:39:49.107Z,19.42
2023-11-30T22:42:16.442Z,22.65
2023-11-30T22:44:43.765Z,16.13
2023-11-30T22:47:10.908Z,17.15
2023-11-30T22:49:38.156Z,14.38
2023-11-30T22:52:05.367Z,19.13
2023-11-30T22:54:33.173Z,16.63
2023-11-30T22:57:00.417Z,21.15
2023-11-30T22:59:28.866Z,20.15
2023-11-30T23:01:56.146Z,21.75
2023-11-30T23:04:23.578Z,25.90
2023-11-30T23:06:51.176Z,34.08
2023-11-30T23:09:18.418Z,29.77
2023-11-30T23:11:45.610Z,36.05
2023-11-30T23:14:12.673Z,25.88
2023-11-30T23:16:39.859Z,27.58
2023-11-30T23:19:08.871Z,24.45
2023-11-30T23:21:36.074Z,24.33
2023-11-30T23:24:03.253Z,26.15
2023-11-30T23:26:30.507Z,23.55
2023-11-30T23:28:57.577Z,26.17
2023-11-30T23:31:24.882Z,19.30
2023-11-30T23:33:52.105Z,19.95
2023-11-30T23:36:19.622Z,25.45
2023-11-30T23:38:47.000Z,25.05
2023-11-30T23:41:14.262Z,23.45
2023-11-30T23:43:41.230Z,23.17
2023-11-30T23:46:09.950Z,21.33
2023-11-30T23:48:37.195Z,22.08
2023-11-30T23:51:04.659Z,20.08
2023-11-30T23:53:31.821Z,21.98
2023-11-30T23:55:58.823Z,21.15
2023-11-30T23:58:25.943Z,19.40
